createdAt,value
2019-04-29T00:00:42.231Z,4.50
2019-04-29T00:03:10.683Z,4.10
2019-04-29T00:05:39.247Z,5.83
2019-04-29T00:08:07.645Z,3.92
2019-04-29T00:10:36.112Z,3.92
2019-04-29T00:13:04.901Z,3.87
2019-04-29T00:15:52.641Z,3.50
2019-04-29T00:18:26.154Z,4.35
2019-04-29T00:20:55.644Z,4.30
2019-04-29T00:23:26.134Z,3.80
2019-04-29T00:25:54.574Z,4.62
2019-04-29T00:28:23.046Z,4.25
2019-04-29T00:30:51.540Z,3.60
2019-04-29T00:33:20.005Z,4.15
2019-04-29T00:35:48.770Z,4.17
2019-04-29T00:38:35.248Z,4.50
2019-04-29T00:41:32.101Z,3.98
2019-04-29T00:44:03.016Z,4.15
2019-04-29T00:46:31.461Z,4.47
2019-04-29T00:49:00.128Z,4.03
2019-04-29T00:51:30.016Z,3.70
2019-04-29T00:54:01.970Z,3.60
2019-04-29T00:56:31.483Z,4.35
2019-04-29T00:59:00.428Z,4.30
2019-04-29T01:01:29.877Z,4.20
2019-04-29T01:03:59.431Z,4.20
2019-04-29T01:06:28.172Z,3.92
2019-04-29T01:08:57.162Z,4.00
2019-04-29T01:11:25.639Z,4.50
2019-04-29T01:13:54.130Z,4.58
2019-04-29T01:16:22.601Z,4.37
2019-04-29T01:18:51.030Z,5.42
2019-04-29T01:21:19.477Z,4.58
2019-04-29T01:23:48.235Z,4.12
2019-04-29T01:26:47.772Z,4.17
2019-04-29T01:29:16.416Z,4.17
2019-04-29T01:31:44.837Z,4.10
2019-04-29T01:34:17.318Z,3.83
2019-04-29T01:36:46.339Z,4.47
2019-04-29T01:39:14.797Z,4.42
2019-04-29T01:41:55.383Z,3.92
2019-04-29T01:44:24.292Z,5.03
2019-04-29T01:46:53.024Z,4.50
2019-04-29T01:49:21.708Z,4.60
2019-04-29T01:51:50.170Z,4.85
2019-04-29T01:54:18.730Z,4.35
2019-04-29T01:56:47.111Z,4.55
2019-04-29T01:59:15.599Z,4.58
2019-04-29T02:01:45.131Z,4.53
2019-04-29T02:04:13.588Z,4.72
2019-04-29T02:06:42.061Z,3.80
2019-04-29T02:09:13.564Z,4.87
2019-04-29T02:11:43.027Z,5.00
2019-04-29T02:14:11.696Z,5.10
2019-04-29T02:16:40.172Z,5.30
2019-04-29T02:19:08.507Z,5.03
2019-04-29T02:21:36.963Z,4.72
2019-04-29T02:24:12.999Z,5.45
2019-04-29T02:26:41.521Z,5.15
2019-04-29T02:29:09.981Z,5.05
2019-04-29T02:31:38.590Z,4.90
2019-04-29T02:34:07.303Z,5.08
2019-04-29T02:36:36.039Z,5.05
2019-04-29T02:39:12.358Z,5.83
2019-04-29T02:42:02.862Z,4.85
2019-04-29T02:44:31.687Z,4.87
2019-04-29T02:47:00.897Z,4.87
2019-04-29T02:49:29.298Z,5.33
2019-04-29T02:51:57.787Z,5.35
2019-04-29T02:54:26.259Z,5.03
2019-04-29T02:57:01.349Z,5.78
2019-04-29T02:59:34.026Z,5.33
2019-04-29T03:02:09.261Z,5.15
2019-04-29T03:04:56.999Z,5.55
2019-04-29T03:07:25.438Z,5.15
2019-04-29T03:09:53.902Z,5.20
2019-04-29T03:12:22.424Z,5.40
2019-04-29T03:14:50.870Z,5.25
2019-04-29T03:17:19.471Z,5.25
2019-04-29T03:20:05.509Z,5.80
2019-04-29T03:22:35.069Z,5.45
2019-04-29T03:25:04.090Z,5.20
2019-04-29T03:27:33.726Z,4.78
2019-04-29T03:30:02.182Z,5.60
2019-04-29T03:32:30.655Z,5.00
2019-04-29T03:34:59.402Z,5.53
2019-04-29T03:37:28.734Z,5.37
2019-04-29T03:39:57.201Z,5.70
2019-04-29T03:42:26.415Z,5.70
2019-04-29T03:44:54.778Z,6.03
2019-04-29T03:47:23.273Z,5.67
2019-04-29T03:49:51.699Z,5.60
2019-04-29T03:52:20.677Z,5.78
2019-04-29T03:54:49.060Z,6.22
2019-04-29T03:57:17.564Z,5.40
2019-04-29T03:59:46.037Z,5.10
2019-04-29T04:02:23.993Z,5.20
2019-04-29T04:05:15.110Z,5.15
2019-04-29T04:07:53.294Z,5.35
2019-04-29T04:10:21.733Z,5.65
2019-04-29T04:12:50.297Z,5.22
2019-04-29T04:15:18.705Z,5.75
2019-04-29T04:17:52.233Z,5.55
2019-04-29T04:20:20.655Z,5.40
2019-04-29T04:22:49.270Z,5.87
2019-04-29T04:25:17.900Z,5.40
2019-04-29T04:27:46.360Z,6.45
2019-04-29T04:30:14.849Z,5.53
2019-04-29T04:32:43.314Z,6.28
2019-04-29T04:35:12.858Z,6.85
2019-04-29T04:37:42.318Z,6.08
2019-04-29T04:40:10.887Z,5.90
2019-04-29T04:42:39.321Z,6.75
2019-04-29T04:45:09.906Z,6.60
2019-04-29T04:47:40.448Z,7.10
2019-04-29T04:50:09.159Z,6.97
2019-04-29T04:52:37.593Z,7.55
2019-04-29T04:55:06.194Z,7.35
2019-04-29T04:57:35.810Z,7.28
2019-04-29T05:00:05.451Z,7.70
2019-04-29T05:02:34.697Z,7.92
2019-04-29T05:05:03.270Z,7.60
2019-04-29T05:07:31.763Z,8.85
2019-04-29T05:10:00.241Z,8.80
2019-04-29T05:12:28.721Z,8.73
2019-04-29T05:14:57.212Z,8.03
2019-04-29T05:17:25.732Z,7.85
2019-04-29T05:19:54.211Z,7.17
2019-04-29T05:22:23.717Z,6.60
2019-04-29T05:24:53.316Z,7.37
2019-04-29T05:27:30.865Z,7.10
2019-04-29T05:30:04.095Z,7.70
2019-04-29T05:32:32.572Z,6.95
2019-04-29T05:35:09.010Z,6.85
2019-04-29T05:37:43.337Z,7.37
2019-04-29T05:40:11.907Z,7.08
2019-04-29T05:42:52.633Z,6.60
2019-04-29T05:45:27.607Z,6.15
2019-04-29T05:48:10.566Z,6.45
2019-04-29T05:50:47.623Z,6.10
2019-04-29T05:53:21.648Z,6.53
2019-04-29T05:55:52.512Z,6.00
2019-04-29T05:58:18.826Z,6.28
2019-04-29T06:00:52.451Z,6.67
2019-04-29T06:03:21.201Z,6.97
2019-04-29T06:05:49.636Z,5.53
2019-04-29T06:08:18.106Z,6.85
2019-04-29T06:10:46.605Z,5.92
2019-04-29T06:13:15.073Z,5.60
2019-04-29T06:15:43.592Z,6.08
2019-04-29T06:18:12.026Z,6.10
2019-04-29T06:20:42.526Z,5.45
2019-04-29T06:23:19.010Z,5.67
2019-04-29T06:25:46.602Z,5.92
2019-04-29T06:28:26.325Z,5.85
2019-04-29T06:30:51.891Z,5.62
2019-04-29T06:33:29.134Z,5.37
2019-04-29T06:35:57.351Z,6.35
2019-04-29T06:38:38.009Z,5.83
2019-04-29T06:41:09.649Z,6.40
2019-04-29T06:43:47.282Z,6.30
2019-04-29T06:46:17.773Z,6.75
2019-04-29T06:48:51.803Z,6.30
2019-04-29T06:51:20.312Z,5.67
2019-04-29T06:53:48.906Z,5.72
2019-04-29T06:56:17.406Z,6.45
2019-04-29T06:58:48.870Z,6.33
2019-04-29T07:01:16.403Z,6.35
2019-04-29T07:03:44.906Z,6.08
2019-04-29T07:06:13.631Z,6.85
2019-04-29T07:08:42.212Z,6.10
2019-04-29T07:11:10.765Z,6.95
2019-04-29T07:13:40.225Z,6.42
2019-04-29T07:16:08.701Z,5.95
2019-04-29T07:18:40.420Z,6.67
2019-04-29T07:21:12.969Z,6.08
2019-04-29T07:23:40.412Z,6.37
2019-04-29T07:26:14.622Z,7.00
2019-04-29T07:28:44.177Z,6.85
2019-04-29T07:31:17.558Z,6.33
2019-04-29T07:33:53.671Z,6.50
2019-04-29T07:36:22.837Z,7.03
2019-04-29T07:38:51.662Z,6.35
2019-04-29T07:41:20.674Z,6.47
2019-04-29T07:43:47.211Z,6.70
2019-04-29T07:46:56.300Z,6.83
2019-04-29T07:49:12.717Z,6.78
2019-04-29T07:51:39.411Z,7.47
2019-04-29T07:54:06.371Z,7.37
2019-04-29T07:56:37.789Z,6.90
2019-04-29T07:59:04.609Z,7.30
2019-04-29T08:01:31.811Z,7.80
2019-04-29T08:04:00.300Z,7.33
2019-04-29T08:06:28.770Z,7.42
2019-04-29T08:09:02.944Z,7.85
2019-04-29T08:11:26.806Z,7.20
2019-04-29T08:13:55.497Z,7.03
2019-04-29T08:16:23.936Z,7.20
2019-04-29T08:18:53.489Z,6.87
2019-04-29T08:21:24.313Z,7.45
2019-04-29T08:23:52.857Z,8.05
2019-04-29T08:26:23.341Z,7.80
2019-04-29T08:28:59.952Z,7.50
2019-04-29T08:31:23.367Z,7.90
2019-04-29T08:33:52.975Z,7.03
2019-04-29T08:36:22.489Z,8.30
2019-04-29T08:39:07.954Z,8.25
2019-04-29T08:41:32.122Z,7.97
2019-04-29T08:44:25.930Z,7.70
2019-04-29T08:47:05.516Z,7.28
2019-04-29T08:49:34.420Z,6.87
2019-04-29T08:52:02.926Z,7.37
2019-04-29T08:54:31.417Z,7.22
2019-04-29T08:57:04.319Z,7.12
2019-04-29T08:59:28.372Z,7.22
2019-04-29T09:01:57.132Z,7.33
2019-04-29T09:04:28.538Z,7.30
2019-04-29T09:06:54.238Z,7.08
2019-04-29T09:09:29.131Z,6.30
2019-04-29T09:11:51.225Z,6.60
2019-04-29T09:14:19.677Z,6.58
2019-04-29T09:16:48.147Z,6.70
2019-04-29T09:19:17.666Z,7.45
2019-04-29T09:21:53.652Z,6.22
2019-04-29T09:24:21.554Z,6.90
2019-04-29T09:26:57.724Z,6.03
2019-04-29T09:29:36.280Z,6.62
2019-04-29T09:32:06.759Z,6.62
2019-04-29T09:34:35.240Z,5.53
2019-04-29T09:37:04.710Z,6.70
2019-04-29T09:39:45.480Z,6.95
2019-04-29T09:42:34.289Z,6.10
2019-04-29T09:45:14.605Z,5.97
2019-04-29T09:47:41.518Z,6.35
2019-04-29T09:50:10.145Z,7.70
2019-04-29T09:52:39.204Z,5.92
2019-04-29T09:55:09.058Z,5.25
2019-04-29T09:57:37.496Z,5.55
2019-04-29T10:00:10.857Z,5.30
2019-04-29T10:02:47.378Z,4.95
2019-04-29T10:05:29.284Z,4.78
2019-04-29T10:07:58.792Z,4.67
2019-04-29T10:10:28.286Z,5.10
2019-04-29T10:12:57.141Z,5.70
2019-04-29T10:15:43.985Z,6.20
2019-04-29T10:18:17.554Z,6.55
2019-04-29T10:20:49.384Z,7.00
2019-04-29T10:23:18.099Z,6.97
2019-04-29T10:25:59.195Z,6.33
2019-04-29T10:31:00.894Z,7.35
2019-04-29T10:33:40.304Z,7.40
2019-04-29T10:36:10.778Z,7.28
2019-04-29T10:38:45.004Z,7.05
2019-04-29T10:41:24.366Z,7.17
2019-04-29T10:44:11.202Z,7.65
2019-04-29T10:47:14.929Z,6.47
2019-04-29T10:50:05.763Z,6.72
2019-04-29T10:52:38.397Z,6.80
2019-04-29T10:55:02.877Z,7.33
2019-04-29T10:57:32.360Z,6.33
2019-04-29T11:00:08.279Z,6.78
2019-04-29T11:03:02.091Z,6.87
2019-04-29T11:05:32.250Z,6.17
2019-04-29T11:08:20.075Z,6.60
2019-04-29T11:10:48.557Z,6.33
2019-04-29T11:13:17.017Z,6.22
2019-04-29T11:15:49.419Z,6.08
2019-04-29T11:18:18.138Z,6.30
2019-04-29T11:20:44.711Z,6.50
2019-04-29T11:23:18.307Z,8.83
2019-04-29T11:26:24.842Z,6.00
2019-04-29T11:28:54.855Z,6.17
2019-04-29T11:31:23.992Z,6.45
2019-04-29T11:34:20.485Z,5.55
2019-04-29T11:36:49.036Z,6.10
2019-04-29T11:39:19.609Z,6.42
2019-04-29T11:41:50.159Z,6.17
2019-04-29T11:44:21.859Z,6.10
2019-04-29T11:46:48.962Z,6.00
2019-04-29T11:49:24.452Z,6.60
2019-04-29T11:52:08.545Z,5.70
2019-04-29T11:54:21.558Z,5.72
2019-04-29T11:56:51.052Z,6.47
2019-04-29T11:59:37.247Z,6.70
2019-04-29T12:02:15.702Z,7.33
2019-04-29T12:05:08.622Z,6.55
2019-04-29T12:07:34.078Z,6.85
2019-04-29T12:10:06.481Z,6.93
2019-04-29T12:12:48.881Z,7.55
2019-04-29T12:15:39.256Z,9.20
2019-04-29T12:18:17.464Z,8.50
2019-04-29T12:20:55.403Z,8.38
2019-04-29T12:23:25.254Z,5.58
2019-04-29T12:26:02.469Z,5.13
2019-04-29T12:28:28.145Z,4.90
2019-04-29T12:31:00.360Z,5.80
2019-04-29T12:33:40.331Z,5.55
2019-04-29T12:36:16.462Z,5.95
2019-04-29T12:39:42.270Z,6.20
2019-04-29T12:42:05.763Z,6.75
2019-04-29T12:44:44.082Z,6.50
2019-04-29T12:47:26.574Z,7.22
2019-04-29T12:49:51.206Z,7.20
2019-04-29T12:52:19.653Z,6.90
2019-04-29T12:54:49.177Z,7.78
2019-04-29T12:57:23.545Z,7.58
2019-04-29T12:59:48.206Z,8.33
2019-04-29T13:02:55.594Z,7.40
2019-04-29T13:05:57.554Z,6.87
2019-04-29T13:08:21.583Z,6.97
2019-04-29T13:10:52.797Z,8.25
2019-04-29T13:13:22.245Z,7.15
2019-04-29T13:16:13.761Z,7.87
2019-04-29T13:18:48.863Z,8.60
2019-04-29T13:21:14.764Z,8.33
2019-04-29T13:23:59.192Z,7.92
2019-04-29T13:26:33.380Z,8.48
2019-04-29T13:31:38.072Z,9.03
2019-04-29T13:33:22.751Z,8.70
2019-04-29T13:34:09.044Z,9.33
2019-04-29T13:36:33.828Z,9.33
2019-04-29T13:39:06.548Z,9.40
2019-04-29T13:41:57.092Z,9.63
2019-04-29T13:44:17.352Z,8.50
2019-04-29T13:47:29.306Z,9.40
2019-04-29T13:50:17.964Z,9.67
2019-04-29T13:52:33.133Z,9.10
2019-04-29T13:55:16.733Z,8.90
2019-04-29T13:57:30.393Z,9.18
2019-04-29T14:00:19.870Z,9.58
2019-04-29T14:03:07.219Z,10.28
2019-04-29T14:05:36.643Z,9.73
2019-04-29T14:08:04.041Z,10.35
2019-04-29T14:10:32.234Z,9.65
2019-04-29T14:13:09.845Z,9.68
2019-04-29T14:15:33.887Z,9.53
2019-04-29T14:17:59.199Z,10.10
2019-04-29T14:20:27.956Z,9.55
2019-04-29T14:23:20.967Z,9.05
2019-04-29T14:25:49.497Z,9.98
2019-04-29T14:28:19.989Z,9.20
2019-04-29T14:30:49.512Z,9.53
2019-04-29T14:33:24.307Z,10.10
2019-04-29T14:35:54.365Z,9.50
2019-04-29T14:38:24.371Z,10.55
2019-04-29T14:40:57.156Z,9.93
2019-04-29T14:43:55.002Z,10.13
2019-04-29T14:46:44.157Z,9.93
2019-04-29T14:49:20.558Z,9.85
2019-04-29T14:51:51.885Z,9.15
2019-04-29T14:54:20.390Z,9.48
2019-04-29T14:56:49.121Z,9.95
2019-04-29T14:59:18.392Z,9.85
2019-04-29T15:01:57.224Z,9.65
2019-04-29T15:04:28.509Z,9.75
2019-04-29T15:06:57.001Z,9.95
2019-04-29T15:09:25.632Z,10.13
2019-04-29T15:12:21.720Z,8.95
2019-04-29T15:15:11.249Z,9.30
2019-04-29T15:17:56.025Z,9.40
2019-04-29T15:21:07.142Z,8.90
2019-04-29T15:23:37.972Z,9.75
2019-04-29T15:26:12.633Z,8.98
2019-04-29T15:28:51.814Z,8.68
2019-04-29T15:31:20.979Z,9.00
2019-04-29T15:33:54.474Z,9.30
2019-04-29T15:36:30.723Z,8.83
2019-04-29T15:39:09.070Z,9.45
2019-04-29T15:41:31.004Z,8.67
2019-04-29T15:44:07.163Z,9.60
2019-04-29T15:46:31.386Z,8.90
2019-04-29T15:49:01.116Z,10.00
2019-04-29T15:51:29.552Z,10.48
2019-04-29T15:53:58.098Z,9.68
2019-04-29T15:56:29.221Z,10.18
2019-04-29T15:58:59.712Z,9.40
2019-04-29T16:01:27.878Z,9.85
2019-04-29T16:03:54.798Z,9.40
2019-04-29T16:06:40.110Z,10.30
2019-04-29T16:09:13.555Z,9.90
2019-04-29T16:12:05.195Z,10.05
2019-04-29T16:14:29.527Z,9.05
2019-04-29T16:16:58.082Z,10.80
2019-04-29T16:19:26.483Z,9.13
2019-04-29T16:21:56.036Z,10.20
2019-04-29T16:24:27.076Z,10.13
2019-04-29T16:26:53.958Z,8.98
2019-04-29T16:29:24.903Z,8.85
2019-04-29T16:32:02.632Z,10.70
2019-04-29T16:34:31.286Z,9.57
2019-04-29T16:37:01.780Z,9.00
2019-04-29T16:39:30.244Z,8.87
2019-04-29T16:42:13.156Z,8.45
2019-04-29T16:44:41.827Z,8.88
2019-04-29T16:49:39.631Z,8.25
2019-04-29T16:52:08.132Z,9.03
2019-04-29T16:54:36.685Z,9.33
2019-04-29T16:57:05.433Z,9.45
2019-04-29T16:59:34.153Z,9.20
2019-04-29T17:02:02.677Z,9.38
2019-04-29T17:04:31.134Z,7.83
2019-04-29T17:07:12.192Z,8.20
2019-04-29T17:09:52.690Z,7.60
2019-04-29T17:12:21.425Z,7.70
2019-04-29T17:15:03.836Z,8.60
2019-04-29T17:17:28.605Z,7.97
2019-04-29T17:19:49.976Z,7.72
2019-04-29T17:22:27.292Z,7.47
2019-04-29T17:24:47.024Z,8.10
2019-04-29T17:27:42.329Z,7.80
2019-04-29T17:30:27.415Z,8.33
2019-04-29T17:33:03.824Z,7.72
2019-04-29T17:35:16.650Z,9.08
2019-04-29T17:35:33.963Z,8.40
2019-04-29T17:38:02.431Z,8.98
2019-04-29T17:40:32.956Z,9.00
2019-04-29T17:43:08.617Z,9.87
2019-04-29T17:45:44.452Z,9.23
2019-04-29T17:48:34.889Z,10.60
2019-04-29T17:51:05.998Z,9.95
2019-04-29T17:56:18.188Z,9.75
2019-04-29T17:58:52.586Z,10.60
2019-04-29T18:01:32.018Z,10.15
2019-04-29T18:04:06.480Z,10.98
2019-04-29T18:06:41.499Z,10.58
2019-04-29T18:09:29.488Z,11.18
2019-04-29T18:11:59.247Z,11.33
2019-04-29T18:14:36.677Z,10.58
2019-04-29T18:16:56.494Z,11.00
2019-04-29T18:19:50.597Z,10.93
2019-04-29T18:22:44.751Z,10.40
2019-04-29T18:25:31.369Z,10.30
2019-04-29T18:28:00.303Z,10.85
2019-04-29T18:30:35.666Z,11.30
2019-04-29T18:33:02.190Z,11.93
2019-04-29T18:35:30.955Z,10.38
2019-04-29T18:38:00.481Z,11.53
2019-04-29T18:40:41.717Z,10.60
2019-04-29T18:43:04.990Z,11.18
2019-04-29T18:45:35.077Z,11.43
2019-04-29T18:48:01.757Z,10.63
2019-04-29T18:50:34.193Z,11.63
2019-04-29T18:52:58.733Z,11.65
2019-04-29T18:55:28.560Z,11.48
2019-04-29T18:57:58.467Z,10.68
2019-04-29T19:00:26.542Z,11.65
2019-04-29T19:02:59.804Z,11.15
2019-04-29T19:05:33.975Z,11.20
2019-04-29T19:08:12.270Z,11.83
2019-04-29T19:10:34.363Z,11.23
2019-04-29T19:13:00.641Z,11.90
2019-04-29T19:15:27.266Z,11.95
2019-04-29T19:17:59.767Z,12.13
2019-04-29T19:20:26.732Z,12.58
2019-04-29T19:23:09.933Z,12.33
2019-04-29T19:25:32.163Z,12.25
2019-04-29T19:28:11.828Z,12.20
2019-04-29T19:30:36.445Z,12.15
2019-04-29T19:33:05.945Z,11.85
2019-04-29T19:35:38.404Z,12.30
2019-04-29T19:38:02.276Z,10.85
2019-04-29T19:40:40.493Z,11.30
2019-04-29T19:42:59.214Z,11.45
2019-04-29T19:45:29.948Z,11.35
2019-04-29T19:47:59.458Z,11.03
2019-04-29T19:50:27.922Z,11.90
2019-04-29T19:52:56.388Z,11.65
2019-04-29T19:55:25.254Z,12.05
2019-04-29T19:57:56.202Z,11.88
2019-04-29T20:00:27.855Z,11.57
2019-04-29T20:02:51.591Z,12.40
2019-04-29T20:05:48.058Z,11.75
2019-04-29T20:08:31.631Z,11.83
2019-04-29T20:10:50.220Z,10.65
2019-04-29T20:13:13.567Z,11.05
2019-04-29T20:15:49.996Z,12.33
2019-04-29T20:18:34.656Z,12.40
2019-04-29T20:21:25.117Z,12.53
2019-04-29T20:23:53.111Z,12.63
2019-04-29T20:26:23.636Z,12.75
2019-04-29T20:28:50.994Z,13.20
2019-04-29T20:31:21.600Z,12.53
2019-04-29T20:33:46.987Z,12.18
2019-04-29T20:36:12.617Z,12.98
2019-04-29T20:38:41.045Z,12.33
2019-04-29T20:41:12.989Z,14.28
2019-04-29T20:43:38.024Z,12.45
2019-04-29T20:46:06.495Z,12.58
2019-04-29T20:48:37.009Z,12.35
2019-04-29T20:53:48.326Z,12.33
2019-04-29T20:56:25.321Z,12.37
2019-04-29T20:58:48.225Z,13.10
2019-04-29T21:01:23.200Z,12.40
2019-04-29T21:03:55.997Z,13.60
2019-04-29T21:06:22.006Z,12.78
2019-04-29T21:08:51.176Z,12.80
2019-04-29T21:11:25.799Z,11.53
2019-04-29T21:14:19.294Z,12.98
2019-04-29T21:16:49.450Z,13.13
2019-04-29T21:19:26.909Z,12.37
2019-04-29T21:21:55.309Z,13.18
2019-04-29T21:24:25.063Z,12.98
2019-04-29T21:26:52.255Z,12.00
2019-04-29T21:29:20.742Z,13.03
2019-04-29T21:31:50.740Z,12.95
2019-04-29T21:34:17.694Z,12.70
2019-04-29T21:37:09.824Z,12.47
2019-04-29T21:39:55.047Z,12.37
2019-04-29T21:42:47.553Z,12.07
2019-04-29T21:45:17.472Z,12.82
2019-04-29T21:47:51.817Z,12.30
2019-04-29T21:50:15.219Z,13.22
2019-04-29T21:52:42.036Z,13.90
2019-04-29T21:55:10.538Z,13.70
2019-04-29T21:57:39.020Z,13.30
2019-04-29T22:00:07.469Z,13.25
2019-04-29T22:02:36.365Z,12.98
2019-04-29T22:05:05.268Z,13.48
2019-04-29T22:07:35.721Z,13.32
2019-04-29T22:10:05.315Z,13.38
2019-04-29T22:12:33.958Z,13.95
2019-04-29T22:15:02.442Z,13.15
2019-04-29T22:17:32.795Z,14.10
2019-04-29T22:20:04.131Z,14.83
2019-04-29T22:22:30.750Z,14.25
2019-04-29T22:25:06.011Z,14.45
2019-04-29T22:27:27.633Z,14.70
2019-04-29T22:29:56.420Z,15.15
2019-04-29T22:32:29.156Z,14.53
2019-04-29T22:35:01.367Z,15.10
2019-04-29T22:37:29.716Z,16.93
2019-04-29T22:39:58.654Z,16.05
2019-04-29T22:42:30.551Z,15.83
2019-04-29T22:45:00.610Z,15.23
2019-04-29T22:47:28.307Z,16.27
2019-04-29T22:49:58.664Z,18.23
2019-04-29T22:52:25.561Z,17.12
2019-04-29T22:54:59.943Z,16.32
2019-04-29T22:57:28.177Z,17.67
2019-04-29T22:59:57.242Z,18.40
2019-04-29T23:02:29.258Z,17.57
2019-04-29T23:05:00.831Z,18.70
2019-04-29T23:07:30.347Z,18.35
2019-04-29T23:10:00.870Z,21.12
2019-04-29T23:12:31.099Z,20.63
2019-04-29T23:15:22.755Z,20.70
2019-04-29T23:17:50.842Z,20.08
2019-04-29T23:20:55.360Z,20.60
2019-04-29T23:23:28.933Z,20.62
2019-04-29T23:25:59.834Z,22.02
2019-04-29T23:28:27.003Z,21.45
2019-04-29T23:30:55.783Z,21.97
2019-04-29T23:33:26.448Z,20.77
2019-04-29T23:35:53.241Z,21.15
2019-04-29T23:38:21.740Z,22.45
2019-04-29T23:40:54.587Z,21.87
2019-04-29T23:43:19.981Z,22.10
2019-04-29T23:45:47.224Z,24.18
2019-04-29T23:48:20.028Z,24.18
2019-04-29T23:50:45.473Z,24.23
2019-04-29T23:53:12.934Z,24.20
2019-04-29T23:55:41.687Z,22.13
2019-04-29T23:58:19.635Z,25.27
